createdAt,value
2023-04-13T00:03:54.972Z,54.51
2023-04-13T00:08:59.616Z,53.76
2023-04-13T00:14:03.488Z,53.69
2023-04-13T00:19:08.583Z,53.75
2023-04-13T00:24:12.593Z,53.10
2023-04-13T00:29:16.728Z,53.55
2023-04-13T00:34:20.648Z,53.10
2023-04-13T00:39:24.553Z,53.37
2023-04-13T00:44:29.364Z,52.94
2023-04-13T00:49:37.144Z,52.47
2023-04-13T00:54:41.224Z,52.51
2023-04-13T00:59:45.514Z,52.40
2023-04-13T01:04:50.446Z,52.51
2023-04-13T01:10:20.540Z,52.43
2023-04-13T01:15:29.910Z,52.44
2023-04-13T01:20:36.519Z,51.92
2023-04-13T01:25:52.601Z,52.22
2023-04-13T01:31:02.222Z,51.97
2023-04-13T01:36:06.122Z,51.73
2023-04-13T01:41:10.345Z,51.45
2023-04-13T01:46:23.506Z,51.09
2023-04-13T01:51:52.215Z,51.48
2023-04-13T01:57:01.056Z,51.39
2023-04-13T02:02:05.223Z,51.16
2023-04-13T02:07:09.626Z,51.03
2023-04-13T02:12:17.535Z,50.95
2023-04-13T02:17:21.429Z,50.62
2023-04-13T02:22:25.658Z,50.11
2023-04-13T02:27:31.472Z,49.85
2023-04-13T02:32:38.272Z,49.43
2023-04-13T02:37:42.560Z,49.25
2023-04-13T02:42:50.501Z,48.44
2023-04-13T02:47:54.781Z,48.45
2023-04-13T02:52:59.105Z,48.04
2023-04-13T02:58:07.244Z,47.62
2023-04-13T03:03:12.344Z,47.93
2023-04-13T03:08:21.936Z,47.80
2023-04-13T03:13:38.669Z,47.61
2023-04-13T03:18:42.906Z,47.64
2023-04-13T03:23:47.051Z,47.73
2023-04-13T03:28:53.283Z,47.64
2023-04-13T03:33:59.432Z,47.54
2023-04-13T03:39:05.985Z,47.09
2023-04-13T03:44:13.671Z,47.56
2023-04-13T03:49:18.472Z,47.30
2023-04-13T03:54:22.413Z,47.14
2023-04-13T03:59:27.496Z,47.34
2023-04-13T04:04:32.124Z,46.90
2023-04-13T04:09:36.826Z,46.85
2023-04-13T04:14:41.902Z,46.46
2023-04-13T04:19:52.192Z,46.65
2023-04-13T04:25:02.696Z,45.91
2023-04-13T04:30:12.189Z,46.03
2023-04-13T04:35:27.033Z,46.00
2023-04-13T04:40:36.229Z,46.43
2023-04-13T04:45:47.790Z,46.06
2023-04-13T04:50:56.830Z,45.68
2023-04-13T04:56:05.685Z,45.68
2023-04-13T05:01:23.509Z,45.44
2023-04-13T05:06:34.440Z,45.88
2023-04-13T05:11:40.057Z,46.02
2023-04-13T05:16:46.854Z,47.44
2023-04-13T05:22:02.083Z,47.11
2023-04-13T05:27:13.995Z,47.52
2023-04-13T05:32:18.131Z,47.27
2023-04-13T05:37:24.394Z,47.84
2023-04-13T05:42:29.185Z,47.83
2023-04-13T05:47:34.720Z,49.63
2023-04-13T05:52:46.530Z,49.71
2023-04-13T05:57:52.219Z,50.70
2023-04-13T06:03:00.197Z,51.37
2023-04-13T06:08:04.599Z,52.62
2023-04-13T06:13:09.046Z,53.63
2023-04-13T06:18:12.964Z,56.12
2023-04-13T06:23:17.342Z,57.62
2023-04-13T06:28:21.498Z,59.15
2023-04-13T06:33:28.568Z,60.63
2023-04-13T06:38:33.167Z,61.64
2023-04-13T06:43:43.656Z,62.05
2023-04-13T06:49:10.634Z,61.94
2023-04-13T06:54:16.196Z,62.02
2023-04-13T06:59:24.773Z,61.88
2023-04-13T07:04:32.358Z,61.07
2023-04-13T07:09:40.124Z,60.88
2023-04-13T07:14:44.321Z,60.40
2023-04-13T07:19:51.682Z,60.06
2023-04-13T07:24:56.451Z,59.49
2023-04-13T07:30:02.063Z,59.36
2023-04-13T07:35:13.213Z,58.08
2023-04-13T07:40:20.006Z,58.58
2023-04-13T07:45:30.084Z,57.46
2023-04-13T07:50:35.609Z,57.13
2023-04-13T07:55:40.025Z,55.98
2023-04-13T08:00:45.013Z,53.94
2023-04-13T08:05:49.584Z,54.40
2023-04-13T08:10:56.121Z,54.57
2023-04-13T08:16:01.986Z,53.05
2023-04-13T08:21:16.026Z,51.23
2023-04-13T08:26:23.756Z,50.38
2023-04-13T08:31:27.881Z,50.79
2023-04-13T08:36:38.406Z,52.16
2023-04-13T08:41:49.584Z,52.55
2023-04-13T08:46:57.505Z,52.60
2023-04-13T08:52:09.732Z,52.57
2023-04-13T08:57:17.534Z,52.52
2023-04-13T09:02:32.636Z,52.34
2023-04-13T09:07:41.370Z,53.09
2023-04-13T09:12:53.438Z,53.11
2023-04-13T09:18:07.152Z,52.71
2023-04-13T09:23:17.181Z,52.72
2023-04-13T09:28:22.671Z,52.69
2023-04-13T09:33:26.965Z,53.19
2023-04-13T09:38:34.262Z,52.92
2023-04-13T09:43:39.867Z,52.92
2023-04-13T09:48:43.855Z,53.04
2023-04-13T09:53:49.026Z,51.08
2023-04-13T09:58:54.193Z,51.29
2023-04-13T10:03:58.577Z,50.92
2023-04-13T10:09:03.210Z,51.42
2023-04-13T10:14:12.804Z,52.63
2023-04-13T10:19:21.006Z,52.69
2023-04-13T10:24:26.062Z,53.13
2023-04-13T10:29:33.680Z,53.00
2023-04-13T10:34:40.641Z,53.24
2023-04-13T10:39:44.921Z,53.51
2023-04-13T10:44:50.855Z,53.16
2023-04-13T10:49:54.723Z,53.31
2023-04-13T10:54:58.838Z,53.34
2023-04-13T11:00:05.275Z,53.00
2023-04-13T11:05:15.705Z,52.70
2023-04-13T11:10:30.850Z,53.13
2023-04-13T11:15:34.801Z,53.30
2023-04-13T11:20:41.442Z,52.90
2023-04-13T11:26:02.296Z,52.66
2023-04-13T11:31:08.388Z,53.35
2023-04-13T11:36:12.274Z,52.82
2023-04-13T11:41:17.364Z,52.98
2023-04-13T11:46:28.837Z,53.29
2023-04-13T11:51:33.849Z,53.35
2023-04-13T11:56:39.999Z,53.97
2023-04-13T12:01:58.107Z,54.23
2023-04-13T12:07:15.693Z,54.74
2023-04-13T12:22:52.257Z,55.62
2023-04-13T12:28:00.844Z,56.04
2023-04-13T12:33:04.992Z,56.39
2023-04-13T12:38:09.934Z,55.94
2023-04-13T12:43:13.850Z,56.92
2023-04-13T12:48:18.082Z,57.27
2023-04-13T12:53:22.386Z,57.29
2023-04-13T12:58:27.366Z,57.13
2023-04-13T13:03:31.506Z,57.89
2023-04-13T13:08:38.419Z,58.45
2023-04-13T13:13:43.983Z,58.56
2023-04-13T13:18:51.312Z,58.85
2023-04-13T13:23:55.410Z,59.45
2023-04-13T13:28:59.935Z,59.24
2023-04-13T13:34:04.202Z,60.34
2023-04-13T13:39:08.297Z,60.83
2023-04-13T13:44:12.264Z,61.59
2023-04-13T13:49:16.618Z,62.00
2023-04-13T13:54:39.099Z,61.72
2023-04-13T13:59:44.057Z,62.80
2023-04-13T14:04:48.120Z,63.24
2023-04-13T14:09:52.019Z,62.96
2023-04-13T14:14:57.013Z,63.43
2023-04-13T14:20:03.032Z,63.79
2023-04-13T14:25:08.269Z,64.49
2023-04-13T14:30:12.765Z,64.82
2023-04-13T14:35:16.987Z,64.77
2023-04-13T14:40:23.193Z,65.27
2023-04-13T14:45:27.236Z,65.76
2023-04-13T14:50:31.919Z,65.78
2023-04-13T14:55:35.866Z,66.23
2023-04-13T15:00:39.895Z,66.84
2023-04-13T15:05:49.633Z,66.66
2023-04-13T15:10:54.465Z,67.47
2023-04-13T15:15:58.637Z,67.67
2023-04-13T15:21:06.137Z,67.98
2023-04-13T15:26:19.916Z,68.00
2023-04-13T15:31:23.885Z,68.18
2023-04-13T15:36:29.550Z,68.33
2023-04-13T15:41:33.527Z,68.80
2023-04-13T15:46:37.859Z,68.93
2023-04-13T15:51:41.888Z,68.40
2023-04-13T15:56:46.210Z,68.70
2023-04-13T16:01:51.966Z,68.92
2023-04-13T16:07:12.157Z,69.20
2023-04-13T16:12:18.566Z,69.34
2023-04-13T16:17:31.810Z,69.67
2023-04-13T16:22:37.316Z,69.54
2023-04-13T16:27:44.916Z,69.69
2023-04-13T16:32:50.825Z,69.63
2023-04-13T16:37:55.167Z,69.78
2023-04-13T16:43:00.770Z,69.77
2023-04-13T16:48:05.908Z,69.92
2023-04-13T16:53:11.891Z,69.97
2023-04-13T16:58:15.784Z,70.23
2023-04-13T17:03:20.155Z,69.78
2023-04-13T17:08:24.519Z,70.07
2023-04-13T17:13:28.541Z,70.54
2023-04-13T17:18:32.693Z,70.23
2023-04-13T17:23:37.804Z,70.12
2023-04-13T17:28:42.042Z,70.05
2023-04-13T17:33:47.269Z,69.97
2023-04-13T17:38:53.694Z,70.40
2023-04-13T17:43:57.562Z,70.23
2023-04-13T17:49:01.882Z,69.95
2023-04-13T17:54:08.563Z,69.71
2023-04-13T17:59:15.487Z,70.13
2023-04-13T18:04:20.534Z,69.53
2023-04-13T18:09:25.608Z,69.22
2023-04-13T18:14:29.580Z,69.09
2023-04-13T18:19:33.588Z,69.72
2023-04-13T18:24:37.871Z,70.15
2023-04-13T18:29:42.017Z,69.81
2023-04-13T18:34:45.818Z,69.66
2023-04-13T18:39:49.865Z,69.65
2023-04-13T18:44:53.730Z,69.30
2023-04-13T18:49:58.972Z,69.57
2023-04-13T18:55:02.853Z,69.72
2023-04-13T19:00:11.179Z,69.70
2023-04-13T19:05:15.083Z,70.04
2023-04-13T19:10:19.850Z,69.58
2023-04-13T19:15:25.908Z,69.62
2023-04-13T19:20:30.738Z,70.02
2023-04-13T19:25:34.762Z,70.33
2023-04-13T19:30:39.014Z,70.56
2023-04-13T19:35:43.048Z,70.10
2023-04-13T19:40:47.090Z,70.64
2023-04-13T19:45:51.387Z,71.28
2023-04-13T19:50:55.339Z,70.81
2023-04-13T19:55:59.241Z,71.06
2023-04-13T20:01:05.714Z,70.94
2023-04-13T20:06:10.776Z,71.15
2023-04-13T20:11:14.753Z,71.70
2023-04-13T20:16:19.165Z,71.19
2023-04-13T20:21:23.219Z,71.38
2023-04-13T20:26:30.631Z,72.19
2023-04-13T20:31:35.183Z,71.50
2023-04-13T20:36:39.359Z,72.16
2023-04-13T20:41:51.614Z,71.34
2023-04-13T20:46:55.523Z,71.43
2023-04-13T20:52:04.804Z,71.90
2023-04-13T20:57:09.891Z,72.35
2023-04-13T21:02:15.111Z,71.68
2023-04-13T21:07:19.988Z,72.55
2023-04-13T21:12:26.349Z,72.28
2023-04-13T21:17:33.028Z,72.26
2023-04-13T21:22:37.559Z,72.25
2023-04-13T21:27:41.775Z,71.87
2023-04-13T21:32:46.260Z,71.77
2023-04-13T21:37:50.346Z,72.52
2023-04-13T21:42:54.167Z,72.07
2023-04-13T21:47:58.325Z,72.68
2023-04-13T21:53:02.326Z,72.36
2023-04-13T21:58:06.210Z,72.23
2023-04-13T22:03:11.071Z,72.60
2023-04-13T22:08:15.001Z,72.34
2023-04-13T22:13:18.920Z,73.13
2023-04-13T22:18:22.909Z,74.46
2023-04-13T22:23:27.654Z,74.67
2023-04-13T22:28:32.535Z,75.90
2023-04-13T22:33:37.087Z,77.31
2023-04-13T22:38:41.192Z,79.26
2023-04-13T22:43:45.055Z,79.90
2023-04-13T22:48:49.173Z,81.55
2023-04-13T22:53:52.989Z,82.21
2023-04-13T22:58:56.928Z,82.92
2023-04-13T23:04:01.129Z,83.34
2023-04-13T23:09:05.358Z,83.68
2023-04-13T23:14:09.324Z,84.16
2023-04-13T23:19:13.334Z,84.99
2023-04-13T23:24:17.367Z,85.24
2023-04-13T23:29:22.948Z,85.40
2023-04-13T23:34:26.879Z,85.94
2023-04-13T23:39:30.834Z,86.26
2023-04-13T23:44:34.591Z,86.28
2023-04-13T23:49:38.646Z,86.31
2023-04-13T23:54:43.633Z,86.14
2023-04-13T23:59:47.438Z,86.77
